Time;durP1;ratioP1;P1;durP2;ratioP2;P2;SDS_P1;SDS_P2;PMS_P1;PMS_P2;Temp;Humidity;BMP_temperature;BMP_pressure;BME280_temperature;BME280_humidity;BME280_pressure;Samples;Min_cycle;Max_cycle;Signal;HPM_P1;HPM_P2
2021/09/22 00:00:14;;;;;;;11.75;5.95;;;;;;;;;;5021553;28;20042;-51
2021/09/22 00:02:43;;;;;;;12.73;6.25;;;;;;;;;;5030355;28;20119;-49
2021/09/22 00:05:10;;;;;;;15.32;6.70;;;;;;;;;;5014328;28;20042;-48
2021/09/22 00:07:36;;;;;;;12.15;6.18;;;;;;;;;;5001999;28;20116;-49
2021/09/22 00:10:03;;;;;;;13.95;6.53;;;;;;;;;;5014472;28;20123;-53
2021/09/22 00:12:31;;;;;;;12.25;6.22;;;;;;;;;;5041807;28;20115;-51
2021/09/22 00:14:58;;;;;;;12.05;6.50;;;;;;;;;;5027472;28;20034;-48
2021/09/22 00:17:24;;;;;;;13.65;5.78;;;;;;;;;;5022048;28;20453;-52
2021/09/22 00:19:51;;;;;;;13.98;5.68;;;;;;;;;;5018890;28;20046;-51
2021/09/22 00:22:19;;;;;;;12.20;6.10;;;;;;;;;;5023239;28;20046;-49
2021/09/22 00:24:45;;;;;;;12.20;6.15;;;;;;;;;;5019177;28;20037;-51
2021/09/22 00:27:12;;;;;;;13.98;6.15;;;;;;;;;;5021953;28;20049;-51
2021/09/22 00:29:40;;;;;;;15.05;6.22;;;;;;;;;;5018668;28;20038;-53
2021/09/22 00:32:06;;;;;;;12.98;6.63;;;;;;;;;;5023702;28;20046;-51
2021/09/22 00:34:33;;;;;;;14.23;7.40;;;;;;;;;;5010948;28;20057;-51
2021/09/22 00:37:04;;;;;;;13.50;6.97;;;;;;;;;;5008183;28;20513;-51
2021/09/22 00:39:31;;;;;;;15.25;6.80;;;;;;;;;;5022376;28;20030;-50
2021/09/22 00:41:57;;;;;;;14.02;6.70;;;;;;;;;;5020725;28;20123;-48
2021/09/22 00:44:24;;;;;;;17.30;6.68;;;;;;;;;;5023966;28;20041;-51
2021/09/22 00:46:52;;;;;;;13.07;6.65;;;;;;;;;;5018709;28;20082;-47
2021/09/22 00:49:19;;;;;;;13.82;6.68;;;;;;;;;;5022100;28;20053;-49
2021/09/22 00:51:45;;;;;;;15.45;6.55;;;;;;;;;;5018826;28;20044;-50
2021/09/22 00:54:12;;;;;;;17.65;6.45;;;;;;;;;;5022697;28;20041;-51
2021/09/22 00:56:38;;;;;;;16.65;7.60;;;;;;;;;;5019604;28;20419;-50
2021/09/22 00:59:06;;;;;;;13.63;6.38;;;;;;;;;;5021745;28;20061;-51
2021/09/22 01:01:33;;;;;;;14.20;6.93;;;;;;;;;;5022036;28;20050;-48
2021/09/22 01:04:01;;;;;;;16.00;7.43;;;;;;;;;;5015894;28;20155;-52
2021/09/22 01:06:28;;;;;;;21.10;7.15;;;;;;;;;;5008766;28;20042;-49
2021/09/22 01:08:57;;;;;;;14.57;7.07;;;;;;;;;;5023119;28;20033;-48
2021/09/22 01:11:25;;;;;;;;;;;;;;;;;;5023441;28;20045;-53
2021/09/22 01:13:52;;;;;;;17.40;7.03;;;;;;;;;;5021051;28;19936;-51
2021/09/22 01:16:18;;;;;;;21.15;7.43;;;;;;;;;;5019829;28;20064;-53
2021/09/22 01:18:45;;;;;;;14.32;6.85;;;;;;;;;;5022264;28;20064;-49
2021/09/22 01:21:13;;;;;;;15.68;7.20;;;;;;;;;;5024400;28;20044;-51
2021/09/22 01:23:42;;;;;;;16.55;8.23;;;;;;;;;;5016346;28;20042;-50
2021/09/22 01:26:09;;;;;;;16.30;8.27;;;;;;;;;;5005506;28;20038;-48
2021/09/22 01:28:35;;;;;;;17.17;7.82;;;;;;;;;;5018203;28;20042;-48
2021/09/22 01:31:03;;;;;;;14.02;6.97;;;;;;;;;;5023420;28;20045;-48
2021/09/22 01:33:29;;;;;;;16.58;7.93;;;;;;;;;;5020696;28;20069;-49
2021/09/22 01:35:56;;;;;;;14.88;7.70;;;;;;;;;;5024410;28;20045;-47
2021/09/22 01:38:24;;;;;;;15.57;7.68;;;;;;;;;;5011405;28;20100;-52
2021/09/22 01:40:56;;;;;;;19.50;8.20;;;;;;;;;;5007314;28;20053;-51
2021/09/22 01:43:23;;;;;;;17.25;7.97;;;;;;;;;;5019287;28;20053;-51
2021/09/22 01:45:50;;;;;;;17.42;7.57;;;;;;;;;;5021913;28;20046;-51
2021/09/22 01:48:16;;;;;;;15.77;7.97;;;;;;;;;;5017723;28;20113;-51
2021/09/22 01:50:43;;;;;;;15.68;7.88;;;;;;;;;;5022511;28;20120;-52
2021/09/22 01:53:11;;;;;;;19.48;8.25;;;;;;;;;;5019379;28;20033;-51
2021/09/22 01:55:37;;;;;;;18.75;8.48;;;;;;;;;;5022829;28;20041;-49
2021/09/22 01:58:05;;;;;;;16.92;7.78;;;;;;;;;;5019127;28;20034;-48
2021/09/22 02:00:32;;;;;;;17.00;7.40;;;;;;;;;;5021249;28;20179;-53
2021/09/22 02:02:59;;;;;;;19.38;8.20;;;;;;;;;;5019537;28;20045;-52
2021/09/22 02:05:25;;;;;;;17.45;7.80;;;;;;;;;;5033390;28;20075;-49
2021/09/22 02:07:52;;;;;;;18.58;7.90;;;;;;;;;;5042334;28;20038;-48
2021/09/22 02:10:18;;;;;;;15.93;7.95;;;;;;;;;;5058710;28;20041;-51
2021/09/22 02:12:45;;;;;;;14.15;7.32;;;;;;;;;;5044108;28;20114;-49
2021/09/22 02:15:17;;;;;;;15.88;7.60;;;;;;;;;;5057974;28;20045;-50
2021/09/22 02:17:44;;;;;;;16.60;7.72;;;;;;;;;;5044713;28;20037;-50
2021/09/22 02:20:11;;;;;;;14.80;7.38;;;;;;;;;;5042055;28;20203;-49
2021/09/22 02:22:38;;;;;;;19.65;8.43;;;;;;;;;;5034767;28;20044;-49
2021/09/22 02:25:05;;;;;;;14.60;7.90;;;;;;;;;;5029933;28;20034;-53
2021/09/22 02:27:32;;;;;;;17.45;8.43;;;;;;;;;;5026329;28;20033;-50
2021/09/22 02:29:58;;;;;;;17.95;8.35;;;;;;;;;;5030290;28;20040;-51
2021/09/22 02:32:27;;;;;;;17.63;8.07;;;;;;;;;;5046080;28;20036;-52
2021/09/22 02:34:54;;;;;;;16.95;8.20;;;;;;;;;;5041870;28;20041;-52
2021/09/22 02:37:20;;;;;;;18.92;9.35;;;;;;;;;;5045209;28;20069;-52
2021/09/22 02:39:47;;;;;;;17.02;8.43;;;;;;;;;;5059263;28;20048;-52
2021/09/22 02:42:13;;;;;;;22.83;9.07;;;;;;;;;;5045008;28;20044;-50
2021/09/22 02:44:40;;;;;;;18.48;9.07;;;;;;;;;;5041953;28;20041;-49
2021/09/22 02:47:07;;;;;;;20.20;9.63;;;;;;;;;;5045059;28;20052;-51
2021/09/22 02:49:35;;;;;;;18.90;8.77;;;;;;;;;;5044580;28;20068;-49
2021/09/22 02:52:02;;;;;;;18.83;8.57;;;;;;;;;;5034951;28;20086;-52
2021/09/22 02:54:28;;;;;;;17.48;8.65;;;;;;;;;;5023692;28;20056;-51
2021/09/22 02:56:55;;;;;;;18.83;9.05;;;;;;;;;;5020291;28;20025;-52
2021/09/22 02:59:21;;;;;;;19.52;9.55;;;;;;;;;;5023796;28;20043;-52
2021/09/22 03:01:48;;;;;;;18.48;8.77;;;;;;;;;;5019667;28;20114;-49
2021/09/22 03:04:15;;;;;;;20.23;9.35;;;;;;;;;;5024409;28;20033;-52
2021/09/22 03:06:45;;;;;;;19.63;8.55;;;;;;;;;;5038448;28;20049;-49
2021/09/22 03:09:12;;;;;;;23.42;9.90;;;;;;;;;;5061478;28;20041;-52
2021/09/22 03:11:39;;;;;;;16.38;8.73;;;;;;;;;;5060485;28;20099;-52
2021/09/22 03:14:05;;;;;;;19.00;8.50;;;;;;;;;;5048916;28;20049;-48
2021/09/22 03:16:34;;;;;;;20.52;9.50;;;;;;;;;;5037372;28;20064;-49
2021/09/22 03:19:01;;;;;;;20.40;9.23;;;;;;;;;;5041823;28;20061;-50
2021/09/22 03:21:28;;;;;;;15.32;8.27;;;;;;;;;;5024534;28;20041;-49
2021/09/22 03:23:56;;;;;;;19.55;9.40;;;;;;;;;;5045387;28;20060;-47
2021/09/22 03:26:24;;;;;;;18.20;9.10;;;;;;;;;;5029511;28;20041;-52
2021/09/22 03:28:50;;;;;;;19.30;9.05;;;;;;;;;;5036670;28;20038;-49
2021/09/22 03:31:17;;;;;;;21.10;9.75;;;;;;;;;;5041440;28;20037;-49
2021/09/22 03:33:45;;;;;;;18.73;9.30;;;;;;;;;;5037192;28;20037;-51
2021/09/22 03:36:12;;;;;;;18.47;9.50;;;;;;;;;;5041222;28;20040;-48
2021/09/22 03:38:38;;;;;;;20.13;10.02;;;;;;;;;;5055837;28;20044;-48
2021/09/22 03:41:06;;;;;;;20.70;10.32;;;;;;;;;;5061696;28;20091;-48
2021/09/22 03:43:34;;;;;;;19.27;9.82;;;;;;;;;;5037913;28;20055;-51
2021/09/22 03:46:01;;;;;;;25.33;10.32;;;;;;;;;;5023202;28;20609;-49
2021/09/22 03:48:27;;;;;;;21.58;10.43;;;;;;;;;;5021605;28;20048;-51
2021/09/22 03:50:54;;;;;;;21.48;9.95;;;;;;;;;;5027993;28;20110;-51
2021/09/22 03:53:21;;;;;;;21.33;10.27;;;;;;;;;;5032039;28;20115;-51
2021/09/22 03:55:48;;;;;;;20.33;10.07;;;;;;;;;;5024031;28;20041;-49
2021/09/22 03:58:19;;;;;;;23.20;10.85;;;;;;;;;;5019512;28;20095;-50
2021/09/22 04:00:46;;;;;;;21.42;10.13;;;;;;;;;;5023993;28;20057;-48
2021/09/22 04:03:13;;;;;;;23.17;10.70;;;;;;;;;;5024451;28;20058;-48
2021/09/22 04:05:39;;;;;;;23.17;11.02;;;;;;;;;;5025861;28;20034;-49
2021/09/22 04:08:06;;;;;;;23.23;10.38;;;;;;;;;;5017358;28;20042;-48
2021/09/22 04:10:32;;;;;;;22.92;9.93;;;;;;;;;;5019893;28;20049;-49
2021/09/22 04:12:59;;;;;;;23.17;10.73;;;;;;;;;;5019232;28;20124;-50
2021/09/22 04:15:27;;;;;;;22.58;10.40;;;;;;;;;;5020892;28;20058;-52
2021/09/22 04:17:53;;;;;;;25.47;10.50;;;;;;;;;;5021107;28;20068;-48
2021/09/22 04:20:20;;;;;;;25.67;10.10;;;;;;;;;;5017696;28;20345;-48
2021/09/22 04:22:46;;;;;;;21.92;9.85;;;;;;;;;;5022018;28;20049;-48
2021/09/22 04:25:13;;;;;;;21.60;10.23;;;;;;;;;;5016500;28;20053;-50
2021/09/22 04:27:40;;;;;;;24.00;11.07;;;;;;;;;;5019255;28;20045;-48
2021/09/22 04:30:08;;;;;;;23.02;10.70;;;;;;;;;;5013924;28;20042;-51
2021/09/22 04:32:35;;;;;;;;;;;;;;;;;;5002398;28;20035;-49
2021/09/22 04:35:03;;;;;;;19.00;9.27;;;;;;;;;;5012525;28;19936;-50
2021/09/22 04:37:35;;;;;;;21.93;10.30;;;;;;;;;;5000791;28;20053;-48
2021/09/22 04:40:01;;;;;;;22.58;9.90;;;;;;;;;;5016030;28;20305;-50
2021/09/22 04:42:28;;;;;;;18.98;9.15;;;;;;;;;;5020580;28;20052;-50
2021/09/22 04:44:54;;;;;;;20.95;9.95;;;;;;;;;;5017866;28;20127;-48
2021/09/22 04:47:21;;;;;;;23.20;10.15;;;;;;;;;;5022483;28;20120;-47
2021/09/22 04:49:48;;;;;;;23.77;9.80;;;;;;;;;;5019384;28;20053;-52
2021/09/22 04:52:15;;;;;;;20.27;9.90;;;;;;;;;;5019814;28;20131;-49
2021/09/22 04:54:42;;;;;;;21.63;10.07;;;;;;;;;;5020036;28;20034;-48
2021/09/22 04:57:08;;;;;;;21.35;9.88;;;;;;;;;;5023558;28;20042;-50
2021/09/22 04:59:35;;;;;;;22.58;10.35;;;;;;;;;;5024563;28;20156;-49
2021/09/22 05:02:01;;;;;;;22.05;10.05;;;;;;;;;;5022278;28;20405;-48
2021/09/22 05:04:30;;;;;;;21.98;10.15;;;;;;;;;;5030080;28;20097;-48
2021/09/22 05:06:58;;;;;;;21.50;10.35;;;;;;;;;;5024920;28;20041;-51
2021/09/22 05:09:26;;;;;;;24.63;11.48;;;;;;;;;;5042800;28;20033;-46
2021/09/22 05:11:54;;;;;;;27.15;11.70;;;;;;;;;;5046888;28;20032;-52
2021/09/22 05:14:21;;;;;;;24.48;10.88;;;;;;;;;;5062165;28;20048;-50
2021/09/22 05:16:47;;;;;;;25.08;10.73;;;;;;;;;;5056735;28;20060;-49
2021/09/22 05:19:14;;;;;;;25.55;10.50;;;;;;;;;;5045373;28;20033;-49
2021/09/22 05:21:40;;;;;;;27.38;11.32;;;;;;;;;;5044584;28;20053;-48
2021/09/22 05:24:07;;;;;;;21.92;10.48;;;;;;;;;;5049483;28;20040;-47
2021/09/22 05:26:35;;;;;;;26.25;10.63;;;;;;;;;;5058986;28;20137;-51
2021/09/22 05:29:01;;;;;;;27.73;10.30;;;;;;;;;;5065557;28;20407;-51
2021/09/22 05:31:28;;;;;;;27.40;11.32;;;;;;;;;;5048038;28;20303;-47
2021/09/22 05:33:55;;;;;;;23.42;11.15;;;;;;;;;;5049100;28;20040;-49
2021/09/22 05:36:21;;;;;;;27.27;12.05;;;;;;;;;;5043793;28;20037;-49
2021/09/22 05:38:48;;;;;;;23.23;10.95;;;;;;;;;;5051799;28;20037;-48
2021/09/22 05:41:14;;;;;;;25.50;11.20;;;;;;;;;;5046659;28;20045;-48
2021/09/22 05:43:43;;;;;;;28.30;13.23;;;;;;;;;;5042648;28;20569;-51
2021/09/22 05:46:10;;;;;;;29.70;12.95;;;;;;;;;;5052421;28;20116;-50
2021/09/22 05:48:39;;;;;;;28.10;13.63;;;;;;;;;;5042261;28;20036;-49
2021/09/22 05:51:06;;;;;;;33.78;16.10;;;;;;;;;;5045587;28;20052;-52
2021/09/22 05:53:32;;;;;;;40.22;18.13;;;;;;;;;;5030905;28;20025;-46
2021/09/22 05:55:59;;;;;;;37.50;18.02;;;;;;;;;;5041149;28;20044;-51
2021/09/22 05:58:25;;;;;;;43.88;19.08;;;;;;;;;;5042946;28;20048;-49
2021/09/22 06:00:53;;;;;;;44.78;21.30;;;;;;;;;;5063171;28;20187;-51
2021/09/22 06:03:21;;;;;;;59.33;28.33;;;;;;;;;;5044376;28;20057;-50
2021/09/22 06:05:47;;;;;;;60.15;27.15;;;;;;;;;;5044297;28;20033;-49
2021/09/22 06:08:14;;;;;;;54.60;22.15;;;;;;;;;;5035467;28;20043;-48
2021/09/22 06:10:43;;;;;;;37.60;17.65;;;;;;;;;;5025513;28;20131;-47
2021/09/22 06:13:11;;;;;;;33.03;15.27;;;;;;;;;;5045201;28;20045;-48
2021/09/22 06:15:37;;;;;;;23.73;11.98;;;;;;;;;;5046303;28;20037;-49
2021/09/22 06:18:05;;;;;;;27.42;12.13;;;;;;;;;;5056344;28;20047;-50
2021/09/22 06:20:32;;;;;;;27.27;12.40;;;;;;;;;;5027851;28;20042;-46
2021/09/22 06:23:03;;;;;;;22.85;11.23;;;;;;;;;;5030442;28;20284;-46
2021/09/22 06:25:38;;;;;;;23.73;10.65;;;;;;;;;;5024946;28;20029;-48
2021/09/22 06:28:07;;;;;;;24.73;10.82;;;;;;;;;;5024933;28;20037;-49
2021/09/22 06:30:41;;;;;;;;;;;;;;;;;;5025913;28;20229;-49
2021/09/22 06:33:09;;;;;;;25.13;10.85;;;;;;;;;;5041840;28;19928;-49
2021/09/22 06:35:36;;;;;;;31.10;13.95;;;;;;;;;;5029212;28;20043;-49
2021/09/22 06:38:02;;;;;;;29.80;14.18;;;;;;;;;;5062221;28;20044;-52
2021/09/22 06:40:29;;;;;;;31.45;13.25;;;;;;;;;;5056660;28;20056;-48
2021/09/22 06:42:56;;;;;;;30.08;12.75;;;;;;;;;;5045337;28;20049;-50
2021/09/22 06:45:24;;;;;;;25.90;11.80;;;;;;;;;;5027816;28;20065;-49
2021/09/22 06:47:51;;;;;;;29.88;12.13;;;;;;;;;;5025746;28;20049;-47
2021/09/22 06:50:19;;;;;;;21.45;11.00;;;;;;;;;;5022520;28;20040;-49
2021/09/22 06:52:46;;;;;;;23.90;10.75;;;;;;;;;;5024406;28;20052;-50
2021/09/22 06:55:13;;;;;;;25.67;11.23;;;;;;;;;;5022569;28;20103;-50
2021/09/22 06:57:40;;;;;;;24.83;11.10;;;;;;;;;;5042682;28;20045;-50
2021/09/22 07:00:09;;;;;;;24.02;10.65;;;;;;;;;;5026099;28;20114;-49
2021/09/22 07:02:36;;;;;;;34.50;12.43;;;;;;;;;;5045217;28;20048;-50
2021/09/22 07:05:03;;;;;;;27.75;12.85;;;;;;;;;;5054284;28;20142;-48
2021/09/22 07:07:31;;;;;;;27.55;12.95;;;;;;;;;;5024379;28;20037;-51
2021/09/22 07:09:57;;;;;;;25.90;12.23;;;;;;;;;;5022507;28;20025;-51
2021/09/22 07:12:24;;;;;;;32.15;13.50;;;;;;;;;;5052151;28;20041;-50
2021/09/22 07:14:50;;;;;;;28.73;12.70;;;;;;;;;;5041147;28;20051;-48
2021/09/22 07:17:18;;;;;;;29.38;13.43;;;;;;;;;;5039456;28;20068;-49
2021/09/22 07:19:44;;;;;;;28.13;13.82;;;;;;;;;;5045998;28;20040;-52
2021/09/22 07:22:11;;;;;;;30.33;13.55;;;;;;;;;;5044630;28;20056;-48
2021/09/22 07:24:39;;;;;;;26.58;13.38;;;;;;;;;;5043294;28;20130;-48
2021/09/22 07:27:05;;;;;;;29.48;14.55;;;;;;;;;;5040541;28;20033;-49
2021/09/22 07:29:32;;;;;;;32.42;13.48;;;;;;;;;;5043719;28;20057;-47
2021/09/22 07:31:58;;;;;;;33.95;14.57;;;;;;;;;;5056774;28;20041;-52
2021/09/22 07:34:26;;;;;;;30.85;14.68;;;;;;;;;;5063544;28;20106;-51
2021/09/22 07:36:53;;;;;;;33.90;15.23;;;;;;;;;;5039056;28;20043;-51
2021/09/22 07:39:19;;;;;;;34.55;15.65;;;;;;;;;;5042420;28;20114;-48
2021/09/22 07:41:47;;;;;;;34.58;14.95;;;;;;;;;;5046380;28;20053;-50
2021/09/22 07:44:17;;;;;;;31.55;14.57;;;;;;;;;;5025812;28;20037;-49
2021/09/22 07:46:43;;;;;;;32.13;15.70;;;;;;;;;;5025795;28;20052;-47
2021/09/22 07:49:10;;;;;;;31.25;14.90;;;;;;;;;;5059725;28;20049;-50
2021/09/22 07:51:36;;;;;;;36.28;15.52;;;;;;;;;;5040924;28;20045;-51
2021/09/22 07:54:03;;;;;;;33.22;14.90;;;;;;;;;;5045266;28;20029;-49
2021/09/22 07:56:30;;;;;;;35.30;15.00;;;;;;;;;;5046347;28;20045;-50
2021/09/22 07:58:58;;;;;;;35.65;15.43;;;;;;;;;;5058074;28;20223;-49
2021/09/22 08:01:24;;;;;;;29.90;14.52;;;;;;;;;;5041602;28;20041;-47
2021/09/22 08:03:52;;;;;;;30.17;14.35;;;;;;;;;;5038433;28;20029;-48
2021/09/22 08:06:18;;;;;;;36.17;15.15;;;;;;;;;;5042005;28;20047;-51
2021/09/22 08:08:45;;;;;;;30.88;14.95;;;;;;;;;;5026934;28;20053;-50
2021/09/22 08:11:12;;;;;;;29.38;14.75;;;;;;;;;;5031651;28;20091;-48
2021/09/22 08:13:38;;;;;;;28.67;14.88;;;;;;;;;;5034825;28;20053;-50
2021/09/22 08:16:10;;;;;;;34.55;14.80;;;;;;;;;;5022647;28;20057;-49
2021/09/22 08:18:36;;;;;;;40.22;14.40;;;;;;;;;;5030799;28;20106;-47
2021/09/22 08:21:03;;;;;;;34.53;15.90;;;;;;;;;;5043622;28;20052;-49
2021/09/22 08:23:29;;;;;;;33.55;15.60;;;;;;;;;;5033699;28;20033;-51
2021/09/22 08:25:56;;;;;;;29.63;15.00;;;;;;;;;;5023389;28;20053;-47
2021/09/22 08:28:22;;;;;;;30.15;15.05;;;;;;;;;;5021572;28;20045;-48
2021/09/22 08:30:49;;;;;;;36.42;15.60;;;;;;;;;;5027114;28;20043;-47
2021/09/22 08:33:18;;;;;;;34.97;14.93;;;;;;;;;;5025161;28;20029;-46
2021/09/22 08:35:47;;;;;;;40.58;16.02;;;;;;;;;;5047279;28;20047;-47
2021/09/22 08:38:14;;;;;;;30.88;13.88;;;;;;;;;;5064361;28;20134;-49
2021/09/22 08:40:40;;;;;;;40.75;15.15;;;;;;;;;;5044674;28;20053;-48
2021/09/22 08:43:07;;;;;;;31.67;13.82;;;;;;;;;;5047215;28;20040;-51
2021/09/22 08:45:34;;;;;;;36.47;14.35;;;;;;;;;;5024903;28;20052;-53
2021/09/22 08:48:01;;;;;;;37.83;15.05;;;;;;;;;;5026574;28;20047;-48
2021/09/22 08:50:29;;;;;;;32.38;14.63;;;;;;;;;;5021482;28;20053;-48
2021/09/22 08:52:56;;;;;;;32.53;13.67;;;;;;;;;;5027637;28;20037;-47
2021/09/22 08:55:23;;;;;;;26.98;12.25;;;;;;;;;;5035460;28;20143;-50
2021/09/22 08:57:49;;;;;;;27.85;13.50;;;;;;;;;;5046520;28;20106;-46
2021/09/22 09:00:16;;;;;;;26.27;12.57;;;;;;;;;;5042595;28;20102;-50
2021/09/22 09:02:45;;;;;;;32.30;12.90;;;;;;;;;;5045439;28;20029;-50
2021/09/22 09:05:13;;;;;;;33.65;12.77;;;;;;;;;;5053833;28;20041;-49
2021/09/22 09:07:51;;;;;;;33.17;13.45;;;;;;;;;;5043787;28;20051;-51
2021/09/22 09:10:18;;;;;;;28.15;12.80;;;;;;;;;;5024201;28;20037;-51
2021/09/22 09:12:45;;;;;;;29.10;11.85;;;;;;;;;;5062827;28;20114;-47
2021/09/22 09:15:13;;;;;;;32.03;13.23;;;;;;;;;;5042331;28;20041;-50
2021/09/22 09:17:44;;;;;;;27.42;12.98;;;;;;;;;;5045722;28;20033;-50
2021/09/22 09:20:20;;;;;;;28.83;12.70;;;;;;;;;;5039469;28;20094;-47
2021/09/22 09:22:56;;;;;;;25.75;12.05;;;;;;;;;;5043321;28;20069;-50
2021/09/22 09:25:23;;;;;;;24.90;11.70;;;;;;;;;;5040602;28;20130;-51
2021/09/22 09:27:49;;;;;;;28.58;13.63;;;;;;;;;;5027298;28;20086;-47
2021/09/22 09:30:17;;;;;;;28.35;11.50;;;;;;;;;;5025901;28;20052;-50
2021/09/22 09:32:45;;;;;;;25.45;11.32;;;;;;;;;;5045837;28;20045;-49
2021/09/22 09:35:13;;;;;;;26.93;12.30;;;;;;;;;;5046029;28;20032;-51
2021/09/22 09:37:41;;;;;;;29.45;13.65;;;;;;;;;;5054992;28;20299;-49
2021/09/22 09:40:19;;;;;;;26.63;13.02;;;;;;;;;;5064327;28;20125;-51
2021/09/22 09:42:48;;;;;;;26.80;12.07;;;;;;;;;;5058720;28;20126;-50
2021/09/22 09:45:17;;;;;;;31.73;12.27;;;;;;;;;;5063105;28;20055;-51
2021/09/22 09:47:44;;;;;;;28.25;13.02;;;;;;;;;;5051354;28;20033;-48
2021/09/22 09:50:18;;;;;;;28.67;12.50;;;;;;;;;;5044311;28;20045;-50
2021/09/22 09:52:51;;;;;;;23.00;11.07;;;;;;;;;;5046703;28;20043;-48
2021/09/22 09:55:20;;;;;;;24.40;12.02;;;;;;;;;;5046350;28;20037;-49
2021/09/22 09:57:47;;;;;;;25.00;11.05;;;;;;;;;;5042571;28;20045;-52
2021/09/22 10:00:15;;;;;;;27.57;11.63;;;;;;;;;;5044456;28;20040;-51
2021/09/22 10:02:41;;;;;;;22.98;11.05;;;;;;;;;;5038149;28;20126;-51
2021/09/22 10:05:08;;;;;;;22.35;10.75;;;;;;;;;;5025169;28;20176;-52
2021/09/22 10:07:36;;;;;;;27.65;10.80;;;;;;;;;;5022756;28;20061;-53
2021/09/22 10:10:03;;;;;;;25.58;10.48;;;;;;;;;;5025309;28;20370;-54
2021/09/22 10:12:31;;;;;;;19.23;9.63;;;;;;;;;;5039804;28;20493;-53
2021/09/22 10:15:00;;;;;;;20.90;10.55;;;;;;;;;;5057238;28;20041;-53
2021/09/22 10:17:29;;;;;;;24.38;10.35;;;;;;;;;;5039508;28;20126;-52
2021/09/22 10:19:56;;;;;;;24.52;10.15;;;;;;;;;;5062087;28;20055;-48
2021/09/22 10:22:23;;;;;;;21.20;9.68;;;;;;;;;;5043320;28;20037;-51
2021/09/22 10:24:50;;;;;;;26.55;11.55;;;;;;;;;;5026090;28;20048;-52
2021/09/22 10:27:17;;;;;;;25.65;10.93;;;;;;;;;;5024209;28;20044;-52
2021/09/22 10:29:56;;;;;;;26.10;11.15;;;;;;;;;;5040368;28;20044;-50
2021/09/22 10:32:41;;;;;;;20.95;9.45;;;;;;;;;;5045343;28;20064;-51
2021/09/22 10:35:26;;;;;;;23.02;8.93;;;;;;;;;;5023752;28;20115;-53
2021/09/22 10:37:53;;;;;;;21.65;10.05;;;;;;;;;;5040167;28;20037;-49
2021/09/22 10:40:20;;;;;;;19.38;9.05;;;;;;;;;;5039981;28;20061;-54
2021/09/22 10:42:47;;;;;;;24.38;9.02;;;;;;;;;;5044853;28;20044;-54
2021/09/22 10:45:17;;;;;;;27.55;8.80;;;;;;;;;;5055962;28;20114;-52
2021/09/22 10:47:44;;;;;;;22.27;8.85;;;;;;;;;;5044390;28;20194;-53
2021/09/22 10:50:14;;;;;;;18.83;8.30;;;;;;;;;;5026109;28;20030;-51
2021/09/22 10:52:41;;;;;;;19.88;8.90;;;;;;;;;;5025926;28;20093;-49
2021/09/22 10:55:09;;;;;;;16.30;8.35;;;;;;;;;;5034083;28;20036;-53
2021/09/22 10:57:36;;;;;;;15.90;8.40;;;;;;;;;;5045237;28;20044;-50
2021/09/22 11:00:08;;;;;;;18.23;7.60;;;;;;;;;;5038341;28;20037;-51
2021/09/22 11:02:42;;;;;;;16.88;7.90;;;;;;;;;;5025267;28;20053;-52
2021/09/22 11:05:09;;;;;;;22.73;8.95;;;;;;;;;;5030883;28;20037;-53
2021/09/22 11:07:54;;;;;;;17.58;8.07;;;;;;;;;;5062598;28;20118;-51
2021/09/22 11:10:41;;;;;;;17.55;8.15;;;;;;;;;;5048381;28;20060;-51
2021/09/22 11:13:28;;;;;;;22.70;9.07;;;;;;;;;;5061652;28;20060;-54
2021/09/22 11:15:55;;;;;;;15.35;6.85;;;;;;;;;;5039554;28;20055;-52
2021/09/22 11:18:23;;;;;;;21.50;8.13;;;;;;;;;;5062051;28;20059;-54
2021/09/22 11:20:53;;;;;;;17.70;8.38;;;;;;;;;;5058835;28;20048;-52
2021/09/22 11:23:22;;;;;;;17.50;7.97;;;;;;;;;;5044634;28;20053;-54
2021/09/22 11:25:49;;;;;;;18.25;8.00;;;;;;;;;;5032741;28;20127;-52
2021/09/22 11:28:16;;;;;;;20.80;8.00;;;;;;;;;;5022551;28;20037;-52
2021/09/22 11:30:44;;;;;;;18.25;7.05;;;;;;;;;;5022301;28;20081;-54
2021/09/22 11:33:19;;;;;;;15.20;7.57;;;;;;;;;;5023733;28;20078;-53
2021/09/22 11:35:47;;;;;;;17.83;7.97;;;;;;;;;;5026948;28;20048;-54
2021/09/22 11:38:13;;;;;;;18.60;7.05;;;;;;;;;;5023772;28;20175;-52
2021/09/22 11:40:40;;;;;;;14.95;6.65;;;;;;;;;;5023502;28;20282;-53
2021/09/22 11:43:10;;;;;;;16.02;6.13;;;;;;;;;;5044486;28;20081;-49
2021/09/22 11:45:38;;;;;;;18.52;6.85;;;;;;;;;;5040216;28;20090;-51
2021/09/22 11:48:05;;;;;;;21.20;6.80;;;;;;;;;;5023432;28;20034;-52
2021/09/22 11:50:36;;;;;;;14.77;5.25;;;;;;;;;;5039932;28;20053;-54
2021/09/22 11:53:06;;;;;;;14.43;5.55;;;;;;;;;;5056119;28;20133;-53
2021/09/22 11:55:33;;;;;;;12.18;5.82;;;;;;;;;;5043759;28;20145;-54
2021/09/22 11:58:03;;;;;;;11.52;5.93;;;;;;;;;;5024997;28;20041;-54
2021/09/22 12:00:30;;;;;;;14.95;5.78;;;;;;;;;;5015905;28;20033;-53
2021/09/22 12:02:57;;;;;;;14.70;5.30;;;;;;;;;;5034550;28;20070;-53
2021/09/22 12:05:24;;;;;;;14.55;5.57;;;;;;;;;;5046835;28;20118;-53
2021/09/22 12:07:53;;;;;;;12.98;5.20;;;;;;;;;;5050778;28;20029;-54
2021/09/22 12:10:24;;;;;;;15.40;6.70;;;;;;;;;;5001172;28;20041;-51
2021/09/22 12:12:51;;;;;;;14.25;6.30;;;;;;;;;;5047957;28;20037;-53
2021/09/22 12:15:18;;;;;;;15.18;5.88;;;;;;;;;;5042556;28;20053;-54
2021/09/22 12:17:44;;;;;;;17.63;5.43;;;;;;;;;;5040933;28;20033;-51
2021/09/22 12:20:13;;;;;;;12.48;6.38;;;;;;;;;;5064044;28;20037;-53
2021/09/22 12:22:41;;;;;;;11.43;4.72;;;;;;;;;;5042637;28;20036;-52
2021/09/22 12:25:09;;;;;;;12.65;4.70;;;;;;;;;;5046445;28;20057;-52
2021/09/22 12:27:39;;;;;;;15.65;4.70;;;;;;;;;;5042191;28;20110;-55
2021/09/22 12:30:07;;;;;;;14.52;5.55;;;;;;;;;;5047352;28;20122;-54
2021/09/22 12:32:33;;;;;;;;;;;;;;;;;;5060328;28;20047;-50
2021/09/22 12:35:04;;;;;;;10.38;3.90;;;;;;;;;;5046460;28;19935;-56
2021/09/22 12:37:31;;;;;;;14.07;4.68;;;;;;;;;;5046482;28;20075;-54
2021/09/22 12:39:59;;;;;;;12.65;4.70;;;;;;;;;;5045009;28;20071;-52
2021/09/22 12:42:38;;;;;;;9.73;3.63;;;;;;;;;;5064999;28;20045;-52
2021/09/22 12:45:06;;;;;;;14.95;5.20;;;;;;;;;;5024117;28;20293;-54
2021/09/22 12:47:34;;;;;;;16.15;5.40;;;;;;;;;;5028378;28;20099;-54
2021/09/22 12:50:09;;;;;;;15.02;4.90;;;;;;;;;;5024322;28;20044;-54
2021/09/22 12:52:43;;;;;;;15.43;5.22;;;;;;;;;;5026975;28;20045;-54
2021/09/22 12:55:20;;;;;;;13.02;5.07;;;;;;;;;;5023904;28;20056;-49
2021/09/22 12:57:52;;;;;;;11.40;4.78;;;;;;;;;;5026392;28;20098;-54
2021/09/22 13:00:29;;;;;;;15.75;4.60;;;;;;;;;;5037883;28;20056;-49
2021/09/22 13:03:06;;;;;;;18.20;5.00;;;;;;;;;;5046272;28;20080;-53
2021/09/22 13:05:35;;;;;;;12.05;4.90;;;;;;;;;;5043044;28;20041;-54
2021/09/22 13:08:02;;;;;;;11.75;5.03;;;;;;;;;;5064444;28;20094;-52
2021/09/22 13:10:28;;;;;;;15.45;4.55;;;;;;;;;;5043460;28;20052;-54
2021/09/22 13:13:13;;;;;;;8.85;3.90;;;;;;;;;;5065075;28;20041;-55
2021/09/22 13:15:40;;;;;;;8.55;3.90;;;;;;;;;;5025772;28;20043;-53
2021/09/22 13:18:06;;;;;;;13.63;5.57;;;;;;;;;;5041386;28;20034;-53
2021/09/22 13:20:33;;;;;;;12.48;4.53;;;;;;;;;;5032587;28;20048;-56
2021/09/22 13:23:01;;;;;;;13.15;4.78;;;;;;;;;;5044767;28;20044;-53
2021/09/22 13:25:27;;;;;;;12.80;4.70;;;;;;;;;;5040580;28;20045;-50
2021/09/22 13:27:54;;;;;;;10.02;3.90;;;;;;;;;;5064085;28;20281;-54
2021/09/22 13:30:21;;;;;;;10.20;4.53;;;;;;;;;;5040898;28;20052;-55
2021/09/22 13:32:50;;;;;;;12.32;4.78;;;;;;;;;;5045268;28;20053;-53
2021/09/22 13:35:16;;;;;;;10.85;4.88;;;;;;;;;;5039012;28;20107;-54
2021/09/22 13:37:43;;;;;;;11.13;3.85;;;;;;;;;;5025872;28;20029;-53
2021/09/22 13:40:10;;;;;;;13.63;4.38;;;;;;;;;;5024047;28;20041;-55
2021/09/22 13:42:37;;;;;;;7.28;3.95;;;;;;;;;;5043524;28;20055;-55
2021/09/22 13:45:04;;;;;;;16.48;4.60;;;;;;;;;;5058844;28;20034;-53
2021/09/22 13:47:32;;;;;;;9.30;4.00;;;;;;;;;;5021863;28;20052;-55
2021/09/22 13:49:58;;;;;;;10.48;4.07;;;;;;;;;;5027139;28;20135;-54
2021/09/22 13:52:25;;;;;;;10.07;4.78;;;;;;;;;;5038801;28;20071;-54
2021/09/22 13:54:52;;;;;;;10.82;4.65;;;;;;;;;;5047389;28;20040;-55
2021/09/22 13:57:19;;;;;;;12.55;4.95;;;;;;;;;;5040586;28;20048;-55
2021/09/22 13:59:45;;;;;;;15.07;5.32;;;;;;;;;;5045506;28;20132;-53
2021/09/22 14:02:14;;;;;;;11.35;4.38;;;;;;;;;;5041186;28;20044;-54
2021/09/22 14:04:41;;;;;;;12.13;4.93;;;;;;;;;;5044434;28;20056;-55
2021/09/22 14:07:08;;;;;;;10.25;3.90;;;;;;;;;;5039953;28;20056;-55
2021/09/22 14:09:35;;;;;;;13.50;4.28;;;;;;;;;;5045143;28;20043;-54
2021/09/22 14:12:01;;;;;;;11.23;4.75;;;;;;;;;;5035387;28;20045;-55
2021/09/22 14:14:28;;;;;;;14.18;3.97;;;;;;;;;;5026430;28;20033;-53
2021/09/22 14:16:54;;;;;;;13.25;4.43;;;;;;;;;;5025123;28;20134;-55
2021/09/22 14:19:21;;;;;;;11.57;5.03;;;;;;;;;;5046133;28;20118;-54
2021/09/22 14:21:49;;;;;;;9.95;3.78;;;;;;;;;;5041661;28;20049;-53
2021/09/22 14:24:17;;;;;;;13.43;4.53;;;;;;;;;;5045427;28;20037;-54
2021/09/22 14:26:43;;;;;;;12.25;4.38;;;;;;;;;;5063067;28;20060;-54
2021/09/22 14:29:10;;;;;;;11.10;4.50;;;;;;;;;;5023025;28;20057;-56